Huvudsida
METAR-TAF:

METAR-TAF

Flygplatser :

Höga Kusten Airport

Kramfors, Sverige

latitud: 63-03N, longitud: 017-46E, höjd: 10 m

Aktuellt väderrapport

Denna rapport gjordes för 35 minuter sedan, klockan 10:20 UTC
Vind 3 kt från nord/nordväst
Temperatur -4°C
Fuktighet 100%
Tryck 1018 hPa
Sikt: 3300 m
lätt snö

METAR: ESNK 171020Z AUTO 34003KT 3300 -SN SCT004/// BKN012/// OVC017/// M04/M04 Q1018

Tid: 11:55 (10:55 UTC)

Väderprognos

Denna rapport gjordes för 5 timmar och 25 minuter sedan, klockan 05:30 UTC
Prognos gäller från 17 kl. 06 UTC till 17 kl. 10 UTC
Vind 2 kt varierande vindriktning
Sikt: 0700 m
på en höjd av 1500 ft
snö
Temporärt
från 17 kl. 06 UTC till 17 kl. 09 UTC
Sikt: 3000 m
Brutna moln på en höjd av 400 ft
lätt snö
Blir
från 17 kl. 09 UTC till 17 kl. 10 UTC
Sikt: 7000 m
Brutna moln på en höjd av 400 ft
lätt snö

TAF: ESNK 170530Z 1706/1710 VRB02KT 0700 SN VV015 TEMPO 1706/1709 3000 -SN BKN004 BECMG 1709/1710 7000 -SN BKN004

Aktuella väderrapporter och prognoser från 4000 flygplatser (METAR- och TAF-rapporter).

De tillgängliga stationerna syns som gula och röda prickar på kartan.

För musen över prickarna för att se namnen på stationerna.

Klicka sedan för att få väderrapporter och prognoser.

För att ändra kartan: Klicka på de gröna knapparna med ett svart kors på för att zooma in; den gröna knappen med ett streck på för att zooma ut; eller på de gröna pilarna för angränsande kartor.


METAR-TAF: